TimeEST,TemperatureF,Dew PointF,Humidity,Sea Level PressureIn,VisibilityMPH,Wind Direction,Wind SpeedMPH,Gust SpeedMPH,PrecipitationIn,Events,Conditions,WindDirDegrees,DateUTC
12:53 AM,42.1,39.9,92,30.39,10.0,Calm,Calm,-,N/A,,Overcast,0,2013-01-09 05:53:00
1:53 AM,37.9,36.0,93,30.38,10.0,Calm,Calm,-,N/A,,Scattered Clouds,0,2013-01-09 06:53:00
2:53 AM,39.0,39.0,100,30.40,10.0,Calm,Calm,-,N/A,,Mostly Cloudy,0,2013-01-09 07:53:00
3:53 AM,36.0,36.0,100,30.38,10.0,Calm,Calm,-,N/A,,Clear,0,2013-01-09 08:53:00
4:53 AM,34.0,34.0,100,30.38,6.0,Calm,Calm,-,N/A,,Clear,0,2013-01-09 09:53:00
5:53 AM,32.0,32.0,100,30.38,5.0,Calm,Calm,-,N/A,,Clear,0,2013-01-09 10:53:00
6:53 AM,32.0,32.0,100,30.38,8.0,Calm,Calm,-,N/A,,Clear,0,2013-01-09 11:53:00
7:45 AM,33.8,33.8,100,30.40,5.0,Calm,Calm,-,N/A,,Clear,0,2013-01-09 12:45:00
7:53 AM,35.1,34.0,96,30.40,6.0,Calm,Calm,-,N/A,,Clear,0,2013-01-09 12:53:00
8:53 AM,45.0,44.1,97,30.41,10.0,Calm,Calm,-,N/A,,Clear,0,2013-01-09 13:53:00
9:53 AM,48.9,42.1,77,30.41,10.0,SSW,4.6,-,N/A,,Partly Cloudy,210,2013-01-09 14:53:00
10:53 AM,50.0,42.1,74,30.38,10.0,SSW,6.9,-,N/A,,Clear,200,2013-01-09 15:53:00
11:53 AM,54.0,44.1,69,30.34,10.0,South,8.1,-,N/A,,Clear,190,2013-01-09 16:53:00
1:53 PM,55.9,46.0,69,30.30,10.0,SW,6.9,-,N/A,,Partly Cloudy,220,2013-01-09 18:53:00
2:18 PM,55.4,46.4,72,30.30,10.0,SSW,6.9,-,N/A,,Partly Cloudy,200,2013-01-09 19:18:00
2:53 PM,57.0,46.9,69,30.30,10.0,Variable,3.5,-,N/A,,Clear,0,2013-01-09 19:53:00
3:53 PM,52.0,46.0,80,30.30,10.0,Calm,Calm,-,N/A,,Partly Cloudy,0,2013-01-09 20:53:00
4:53 PM,52.0,46.0,80,30.27,10.0,SSW,5.8,-,N/A,,Clear,200,2013-01-09 21:53:00
5:53 PM,52.0,46.9,83,30.25,10.0,SW,5.8,-,N/A,,Clear,220,2013-01-09 22:53:00
6:53 PM,52.0,46.9,83,30.27,10.0,SSW,5.8,-,N/A,,Clear,210,2013-01-09 23:53:00
7:53 PM,53.1,48.0,83,30.27,10.0,WSW,9.2,-,N/A,,Clear,240,2013-01-10 00:53:00
9:53 PM,52.0,48.0,86,30.31,10.0,West,4.6,-,N/A,,Clear,270,2013-01-10 02:53:00
10:53 PM,50.0,46.9,89,30.34,10.0,NW,5.8,-,N/A,,Clear,320,2013-01-10 03:53:00
11:53 PM,51.1,43.0,74,30.35,10.0,NW,8.1,-,N/A,,Clear,310,2013-01-10 04:53:00